createdAt,value
2023-10-19T00:00:57.934Z,10.09
2023-10-19T00:03:28.170Z,10.07
2023-10-19T00:05:59.727Z,10.05
2023-10-19T00:08:37.630Z,10.08
2023-10-19T00:11:06.219Z,10.05
2023-10-19T00:13:36.883Z,10.05
2023-10-19T00:16:12.780Z,10.03
2023-10-19T00:18:44.079Z,10.03
2023-10-19T00:21:20.774Z,10.05
2023-10-19T00:23:51.735Z,10.10
2023-10-19T00:26:21.146Z,10.08
2023-10-19T00:29:00.750Z,10.08
2023-10-19T00:31:30.080Z,10.08
2023-10-19T00:34:02.104Z,10.09
2023-10-19T00:36:32.244Z,10.09
2023-10-19T00:39:06.373Z,10.09
2023-10-19T00:41:35.611Z,10.12
2023-10-19T00:44:08.485Z,10.10
2023-10-19T00:46:40.412Z,10.11
2023-10-19T00:49:10.715Z,10.10
2023-10-19T00:51:52.247Z,10.09
2023-10-19T00:54:33.186Z,10.09
2023-10-19T00:57:07.262Z,10.13
2023-10-19T00:59:40.022Z,10.15
2023-10-19T01:02:19.052Z,10.15
2023-10-19T01:04:51.956Z,10.16
2023-10-19T01:07:24.187Z,10.17
2023-10-19T01:09:57.841Z,10.20
2023-10-19T01:12:34.862Z,10.19
2023-10-19T01:15:14.141Z,10.19
2023-10-19T01:17:45.063Z,10.21
2023-10-19T01:20:22.285Z,10.25
2023-10-19T01:23:07.781Z,10.24
2023-10-19T01:25:47.367Z,10.26
2023-10-19T01:28:18.222Z,10.26
2023-10-19T01:30:52.681Z,10.24
2023-10-19T01:33:21.813Z,10.27
2023-10-19T01:36:07.581Z,10.27
2023-10-19T01:38:37.155Z,10.28
2023-10-19T01:41:08.841Z,10.31
2023-10-19T01:43:41.588Z,10.31
2023-10-19T01:46:12.990Z,10.32
2023-10-19T01:48:43.198Z,10.33
2023-10-19T01:51:12.196Z,10.32
2023-10-19T01:53:45.230Z,10.34
2023-10-19T01:56:15.411Z,10.34
2023-10-19T01:58:44.399Z,10.35
2023-10-19T02:01:21.507Z,10.39
2023-10-19T02:03:54.457Z,10.40
2023-10-19T02:06:27.433Z,10.36
2023-10-19T02:08:57.933Z,10.35
2023-10-19T02:11:26.680Z,10.34
2023-10-19T02:13:56.867Z,10.36
2023-10-19T02:16:24.424Z,10.38
2023-10-19T02:18:53.355Z,10.38
2023-10-19T02:21:23.528Z,10.37
2023-10-19T02:23:52.662Z,10.37
2023-10-19T02:26:24.130Z,10.37
2023-10-19T02:28:53.280Z,10.38
2023-10-19T02:31:22.815Z,10.39
2023-10-19T02:33:53.230Z,10.41
2023-10-19T02:36:21.565Z,10.39
2023-10-19T02:38:53.404Z,10.33
2023-10-19T02:41:22.072Z,10.28
2023-10-19T02:44:02.144Z,10.27
2023-10-19T02:49:59.236Z,10.20
2023-10-19T02:52:28.551Z,10.19
2023-10-19T02:55:00.863Z,10.18
2023-10-19T02:57:30.115Z,10.15
2023-10-19T02:59:59.350Z,10.15
2023-10-19T03:02:27.730Z,10.18
2023-10-19T03:04:56.154Z,10.16
2023-10-19T03:07:25.721Z,10.16
2023-10-19T03:09:54.786Z,10.16
2023-10-19T03:12:26.733Z,10.16
2023-10-19T03:14:53.975Z,10.19
2023-10-19T03:17:23.445Z,10.23
2023-10-19T03:19:50.664Z,10.21
2023-10-19T03:22:20.646Z,10.24
2023-10-19T03:24:59.429Z,10.23
2023-10-19T03:27:27.774Z,10.24
2023-10-19T03:29:56.768Z,10.26
2023-10-19T03:32:28.767Z,10.26
2023-10-19T03:34:58.519Z,10.25
2023-10-19T03:37:30.693Z,10.29
2023-10-19T03:40:03.519Z,10.27
2023-10-19T03:42:33.875Z,10.23
2023-10-19T03:45:06.557Z,10.20
2023-10-19T03:47:36.197Z,10.18
2023-10-19T03:50:08.089Z,10.14
2023-10-19T03:52:38.793Z,10.10
2023-10-19T03:55:16.271Z,10.09
2023-10-19T03:57:48.108Z,10.11
2023-10-19T04:00:19.638Z,10.14
2023-10-19T04:02:48.353Z,10.16
2023-10-19T04:05:21.634Z,10.19
2023-10-19T04:07:51.475Z,10.22
2023-10-19T04:10:31.903Z,10.24
2023-10-19T04:13:01.706Z,10.24
2023-10-19T04:15:34.694Z,10.27
2023-10-19T04:18:03.486Z,10.34
2023-10-19T04:20:43.052Z,10.36
2023-10-19T04:23:17.003Z,10.39
2023-10-19T04:25:48.121Z,10.41
2023-10-19T04:28:17.095Z,10.46
2023-10-19T04:30:45.205Z,10.44
2023-10-19T04:33:13.836Z,10.47
2023-10-19T04:35:42.642Z,10.44
2023-10-19T04:38:11.200Z,10.49
2023-10-19T04:40:39.337Z,10.49
2023-10-19T04:43:08.922Z,10.51
2023-10-19T04:45:41.662Z,10.51
2023-10-19T04:48:11.282Z,10.56
2023-10-19T04:50:41.108Z,10.52
2023-10-19T04:53:09.309Z,10.52
2023-10-19T04:55:37.421Z,10.51
2023-10-19T04:58:07.025Z,10.51
2023-10-19T05:00:36.518Z,10.52
2023-10-19T05:03:04.976Z,10.53
2023-10-19T05:05:33.162Z,10.56
2023-10-19T05:08:01.270Z,10.50
2023-10-19T05:10:30.219Z,10.51
2023-10-19T05:13:00.012Z,10.53
2023-10-19T05:15:28.159Z,10.51
2023-10-19T05:17:57.879Z,10.54
2023-10-19T05:20:26.864Z,10.53
2023-10-19T05:22:54.968Z,10.58
2023-10-19T05:25:24.790Z,10.54
2023-10-19T05:27:53.111Z,10.55
2023-10-19T05:30:23.754Z,10.56
2023-10-19T05:32:53.459Z,10.57
2023-10-19T05:35:27.420Z,10.58
2023-10-19T05:37:56.656Z,10.59
2023-10-19T05:40:30.335Z,10.64
2023-10-19T05:43:01.934Z,10.61
2023-10-19T05:45:30.663Z,10.53
2023-10-19T05:47:59.418Z,10.64
2023-10-19T05:50:29.744Z,10.65
2023-10-19T05:52:57.970Z,10.68
2023-10-19T05:55:26.984Z,10.66
2023-10-19T05:57:55.124Z,10.66
2023-10-19T06:00:26.987Z,10.47
2023-10-19T06:02:55.733Z,10.72
2023-10-19T06:05:24.734Z,10.73
2023-10-19T06:07:54.260Z,10.71
2023-10-19T06:10:23.490Z,10.72
2023-10-19T06:12:53.602Z,10.79
2023-10-19T06:15:24.780Z,10.83
2023-10-19T06:17:54.128Z,10.86
2023-10-19T06:20:25.775Z,10.85
2023-10-19T06:22:57.332Z,10.86
2023-10-19T06:25:26.849Z,10.91
2023-10-19T06:27:58.218Z,10.83
2023-10-19T06:30:27.581Z,10.86
2023-10-19T06:32:58.309Z,10.90
2023-10-19T06:35:26.655Z,10.94
2023-10-19T06:37:57.223Z,11.13
2023-10-19T06:40:26.461Z,11.20
2023-10-19T06:42:57.813Z,11.40
2023-10-19T06:45:27.716Z,11.37
2023-10-19T06:47:55.957Z,11.40
2023-10-19T06:50:25.505Z,11.45
2023-10-19T06:52:55.762Z,11.55
2023-10-19T06:55:25.506Z,11.46
2023-10-19T06:57:56.503Z,11.56
2023-10-19T07:00:28.227Z,11.49
2023-10-19T07:02:58.720Z,11.44
2023-10-19T07:05:26.841Z,11.68
2023-10-19T07:07:57.488Z,11.51
2023-10-19T07:10:28.344Z,11.67
2023-10-19T07:12:59.067Z,11.71
2023-10-19T07:15:28.241Z,11.73
2023-10-19T07:17:56.487Z,11.74
2023-10-19T07:20:28.254Z,11.74
2023-10-19T07:22:57.466Z,11.60
2023-10-19T07:25:27.881Z,11.79
2023-10-19T07:27:56.088Z,11.70
2023-10-19T07:30:27.629Z,11.85
2023-10-19T07:32:59.868Z,11.82
2023-10-19T07:35:28.790Z,11.97
2023-10-19T07:37:58.130Z,11.97
2023-10-19T07:40:28.976Z,11.98
2023-10-19T07:42:57.172Z,11.98
2023-10-19T07:45:26.778Z,11.96
2023-10-19T07:50:59.208Z,11.77
2023-10-19T07:53:27.413Z,11.93
2023-10-19T07:55:55.475Z,12.03
2023-10-19T07:58:23.631Z,12.12
2023-10-19T08:00:53.597Z,12.28
2023-10-19T08:03:22.941Z,12.47
2023-10-19T08:05:51.288Z,12.54
2023-10-19T08:08:20.751Z,12.65
2023-10-19T08:10:49.186Z,12.69
2023-10-19T08:13:17.351Z,12.77
2023-10-19T08:15:46.063Z,12.88
2023-10-19T08:18:16.113Z,13.21
2023-10-19T08:20:46.360Z,13.98
2023-10-19T08:23:17.696Z,14.51
2023-10-19T08:25:56.119Z,15.17
2023-10-19T08:28:25.422Z,14.88
2023-10-19T08:31:01.630Z,14.83
2023-10-19T08:33:32.036Z,14.99
2023-10-19T08:36:01.487Z,15.04
2023-10-19T08:38:30.633Z,14.97
2023-10-19T08:41:01.191Z,15.00
2023-10-19T08:43:29.926Z,14.85
2023-10-19T08:45:58.362Z,14.97
2023-10-19T08:48:26.942Z,15.12
2023-10-19T08:50:57.092Z,15.46
2023-10-19T08:53:27.000Z,15.98
2023-10-19T08:55:56.891Z,16.81
2023-10-19T08:58:28.665Z,17.94
2023-10-19T09:00:57.469Z,18.56
2023-10-19T09:03:27.853Z,18.87
2023-10-19T09:05:57.540Z,18.93
2023-10-19T09:08:26.513Z,19.49
2023-10-19T09:10:56.205Z,19.48
2023-10-19T09:13:26.521Z,19.58
2023-10-19T09:15:56.668Z,19.53
2023-10-19T09:18:29.006Z,19.16
2023-10-19T09:21:04.007Z,19.51
2023-10-19T09:23:32.692Z,18.83
2023-10-19T09:26:04.060Z,19.13
2023-10-19T09:28:36.944Z,18.97
2023-10-19T09:31:06.592Z,18.91
2023-10-19T09:33:36.195Z,20.29
2023-10-19T09:36:14.126Z,20.74
2023-10-19T09:38:46.010Z,21.74
2023-10-19T09:41:16.065Z,21.02
2023-10-19T09:43:47.268Z,20.43
2023-10-19T09:46:23.521Z,19.78
2023-10-19T09:48:52.814Z,18.86
2023-10-19T09:51:22.964Z,19.09
2023-10-19T09:53:55.990Z,18.95
2023-10-19T09:56:28.168Z,18.57
2023-10-19T09:59:01.662Z,18.87
2023-10-19T10:01:29.885Z,19.40
2023-10-19T10:04:01.070Z,19.41
2023-10-19T10:06:30.985Z,19.62
2023-10-19T10:09:01.732Z,20.08
2023-10-19T10:11:30.198Z,19.56
2023-10-19T10:14:01.265Z,19.37
2023-10-19T10:16:31.211Z,19.51
2023-10-19T10:19:01.481Z,18.91
2023-10-19T10:21:31.016Z,18.74
2023-10-19T10:24:00.589Z,18.48
2023-10-19T10:26:31.899Z,18.22
2023-10-19T10:29:15.787Z,17.98
2023-10-19T10:31:45.738Z,17.71
2023-10-19T10:34:34.938Z,17.29
2023-10-19T10:37:05.247Z,17.48
2023-10-19T10:39:33.780Z,17.36
2023-10-19T10:42:04.084Z,17.10
2023-10-19T10:44:41.323Z,16.93
2023-10-19T10:47:11.140Z,16.66
2023-10-19T10:49:52.809Z,16.64
2023-10-19T10:52:31.297Z,16.42
2023-10-19T10:55:00.439Z,16.55
2023-10-19T10:57:35.517Z,16.65
2023-10-19T11:00:08.608Z,16.26
2023-10-19T11:02:36.983Z,16.33
2023-10-19T11:05:05.912Z,16.33
2023-10-19T11:07:34.202Z,16.27
2023-10-19T11:10:03.018Z,16.17
2023-10-19T11:12:31.729Z,16.06
2023-10-19T11:15:01.189Z,15.85
2023-10-19T11:17:32.868Z,15.79
2023-10-19T11:20:01.595Z,15.78
2023-10-19T11:22:30.336Z,15.66
2023-10-19T11:25:23.256Z,15.79
2023-10-19T11:27:51.436Z,15.61
2023-10-19T11:30:27.264Z,15.55
2023-10-19T11:32:58.182Z,15.52
2023-10-19T11:35:28.712Z,15.49
2023-10-19T11:38:00.217Z,15.60
2023-10-19T11:40:30.315Z,15.56
2023-10-19T11:42:59.909Z,15.59
2023-10-19T11:45:30.029Z,15.53
2023-10-19T11:47:58.771Z,15.60
2023-10-19T11:50:26.936Z,15.73
2023-10-19T11:52:55.198Z,15.63
2023-10-19T11:55:23.413Z,15.63
2023-10-19T11:57:53.521Z,15.60
2023-10-19T12:00:26.144Z,15.52
2023-10-19T12:02:54.522Z,15.60
2023-10-19T12:05:22.817Z,15.49
2023-10-19T12:07:51.078Z,15.51
2023-10-19T12:10:21.497Z,15.51
2023-10-19T12:13:00.794Z,15.39
2023-10-19T12:15:33.498Z,15.19
2023-10-19T12:18:02.903Z,15.29
2023-10-19T12:20:32.890Z,15.32
2023-10-19T12:23:02.016Z,15.26
2023-10-19T12:25:50.102Z,15.15
2023-10-19T12:28:22.066Z,15.16
2023-10-19T12:30:51.966Z,15.08
2023-10-19T12:33:21.017Z,15.03
2023-10-19T12:35:55.087Z,14.89
2023-10-19T12:38:23.410Z,14.76
2023-10-19T12:40:52.825Z,14.48
2023-10-19T12:43:23.113Z,14.67
2023-10-19T12:45:54.933Z,14.53
2023-10-19T12:48:23.201Z,14.63
2023-10-19T12:51:59.197Z,14.53
2023-10-19T12:54:29.179Z,14.47
2023-10-19T12:56:57.357Z,14.58
2023-10-19T12:59:25.495Z,14.66
2023-10-19T13:01:56.333Z,14.75
2023-10-19T13:04:25.441Z,14.71
2023-10-19T13:06:58.549Z,14.51
2023-10-19T13:09:33.864Z,14.46
2023-10-19T13:12:02.466Z,14.37
2023-10-19T13:14:30.745Z,14.32
2023-10-19T13:17:00.276Z,14.24
2023-10-19T13:19:28.985Z,14.14
2023-10-19T13:21:59.626Z,13.94
2023-10-19T13:24:29.261Z,14.05
2023-10-19T13:26:57.544Z,14.12
2023-10-19T13:29:27.833Z,14.23
2023-10-19T13:31:57.614Z,14.31
2023-10-19T13:34:25.827Z,14.29
2023-10-19T13:36:53.859Z,14.44
2023-10-19T13:39:22.562Z,14.46
2023-10-19T13:41:53.639Z,14.35
2023-10-19T13:44:21.814Z,14.28
2023-10-19T13:46:52.419Z,14.30
2023-10-19T13:49:20.651Z,14.24
2023-10-19T13:51:48.766Z,14.14
2023-10-19T13:54:18.456Z,14.27
2023-10-19T13:56:47.589Z,14.20
2023-10-19T13:59:17.122Z,14.22
2023-10-19T14:01:45.508Z,14.25
2023-10-19T14:04:15.613Z,14.25
2023-10-19T14:06:44.784Z,14.23
2023-10-19T14:09:13.958Z,14.22
2023-10-19T14:11:42.162Z,14.16
2023-10-19T14:14:12.190Z,14.17
2023-10-19T14:16:41.922Z,14.20
2023-10-19T14:19:10.062Z,14.16
2023-10-19T14:21:41.559Z,14.15
2023-10-19T14:24:10.702Z,14.21
2023-10-19T14:26:39.737Z,14.14
2023-10-19T14:29:08.010Z,14.19
2023-10-19T14:31:36.287Z,14.15
2023-10-19T14:34:06.226Z,14.18
2023-10-19T14:36:34.468Z,14.20
2023-10-19T14:39:02.492Z,14.15
2023-10-19T14:41:31.225Z,14.20
2023-10-19T14:44:00.806Z,14.16
2023-10-19T14:46:30.532Z,14.20
2023-10-19T14:48:58.825Z,14.16
2023-10-19T14:51:28.405Z,14.18
2023-10-19T14:53:56.608Z,14.26
2023-10-19T14:56:24.783Z,14.32
2023-10-19T14:58:55.928Z,14.32
2023-10-19T15:01:27.174Z,14.42
2023-10-19T15:03:55.727Z,14.27
2023-10-19T15:06:23.973Z,14.57
2023-10-19T15:08:53.735Z,14.61
2023-10-19T15:11:23.258Z,14.62
2023-10-19T15:13:52.586Z,14.73
2023-10-19T15:16:21.879Z,14.75
2023-10-19T15:18:50.235Z,14.82
2023-10-19T15:21:18.562Z,14.88
2023-10-19T15:23:48.009Z,14.77
2023-10-19T15:26:21.028Z,14.78
2023-10-19T15:28:49.772Z,14.72
2023-10-19T15:31:18.310Z,14.64
2023-10-19T15:33:47.561Z,14.60
2023-10-19T15:36:15.770Z,14.62
2023-10-19T15:38:45.081Z,14.59
2023-10-19T15:41:16.861Z,14.59
2023-10-19T15:43:46.679Z,14.56
2023-10-19T15:46:17.047Z,14.54
2023-10-19T15:48:45.574Z,14.52
2023-10-19T15:51:13.987Z,14.43
2023-10-19T15:53:42.576Z,14.37
2023-10-19T15:56:10.809Z,14.29
2023-10-19T15:58:39.280Z,14.22
2023-10-19T16:01:12.524Z,14.18
2023-10-19T16:03:42.146Z,14.13
2023-10-19T16:06:10.901Z,14.06
2023-10-19T16:08:39.181Z,14.01
2023-10-19T16:11:07.976Z,14.07
2023-10-19T16:13:36.826Z,13.97
2023-10-19T16:16:05.269Z,14.02
2023-10-19T16:18:34.787Z,14.03
2023-10-19T16:21:06.794Z,13.98
2023-10-19T16:23:35.141Z,13.99
2023-10-19T16:26:04.864Z,13.99
2023-10-19T16:28:33.956Z,13.98
2023-10-19T16:31:05.567Z,13.97
2023-10-19T16:33:36.633Z,13.98
2023-10-19T16:36:05.442Z,13.98
2023-10-19T16:38:33.623Z,13.97
2023-10-19T16:41:02.164Z,14.00
2023-10-19T16:43:30.349Z,14.03
2023-10-19T16:46:00.912Z,13.97
2023-10-19T16:48:29.149Z,14.02
2023-10-19T16:51:02.503Z,14.03
2023-10-19T16:53:30.922Z,14.00
2023-10-19T16:56:02.352Z,13.96
2023-10-19T16:58:31.167Z,13.85
2023-10-19T17:01:01.016Z,13.86
2023-10-19T17:03:30.413Z,13.82
2023-10-19T17:06:00.031Z,13.82
2023-10-19T17:08:28.197Z,13.79
2023-10-19T17:10:56.347Z,13.85
2023-10-19T17:13:24.638Z,13.79
2023-10-19T17:15:53.814Z,13.76
2023-10-19T17:18:22.093Z,13.74
2023-10-19T17:20:50.234Z,13.73
2023-10-19T17:23:20.527Z,13.73
2023-10-19T17:25:48.841Z,13.80
2023-10-19T17:28:17.552Z,13.80
2023-10-19T17:30:47.162Z,13.81
2023-10-19T17:33:15.486Z,13.85
2023-10-19T17:35:43.632Z,13.89
2023-10-19T17:38:13.213Z,13.93
2023-10-19T17:40:42.898Z,13.94
2023-10-19T17:43:12.718Z,13.92
2023-10-19T17:45:46.714Z,13.90
2023-10-19T17:48:15.234Z,13.90
2023-10-19T17:53:00.122Z,13.82
2023-10-19T17:55:28.522Z,13.76
2023-10-19T17:57:56.778Z,13.89
2023-10-19T18:00:26.047Z,13.87
2023-10-19T18:02:55.022Z,13.90
2023-10-19T18:05:25.129Z,13.90
2023-10-19T18:07:54.024Z,13.71
2023-10-19T18:10:29.775Z,13.86
2023-10-19T18:12:58.008Z,13.85
2023-10-19T18:15:28.347Z,13.86
2023-10-19T18:17:56.564Z,13.85
2023-10-19T18:20:25.006Z,13.86
2023-10-19T18:22:53.202Z,13.83
2023-10-19T18:25:24.848Z,13.86
2023-10-19T18:27:54.338Z,13.86
2023-10-19T18:30:22.558Z,13.86
2023-10-19T18:32:51.767Z,13.83
2023-10-19T18:35:21.190Z,13.83
2023-10-19T18:37:50.595Z,13.82
2023-10-19T18:40:21.449Z,13.84
2023-10-19T18:42:49.641Z,13.85
2023-10-19T18:45:19.707Z,13.85
2023-10-19T18:47:48.118Z,13.87
2023-10-19T18:50:32.783Z,13.87
2023-10-19T18:53:04.528Z,13.89
2023-10-19T18:55:33.218Z,13.91
2023-10-19T18:58:03.673Z,13.88
2023-10-19T19:00:34.778Z,13.85
2023-10-19T19:03:03.066Z,13.80
2023-10-19T19:05:32.209Z,13.80
2023-10-19T19:08:00.469Z,13.77
2023-10-19T19:10:34.141Z,13.76
2023-10-19T19:13:03.131Z,13.72
2023-10-19T19:15:31.250Z,13.72
2023-10-19T19:18:00.822Z,13.71
2023-10-19T19:20:29.325Z,13.71
2023-10-19T19:22:58.210Z,13.69
2023-10-19T19:25:26.628Z,13.67
2023-10-19T19:27:55.068Z,13.66
2023-10-19T19:30:23.263Z,13.63
2023-10-19T19:32:51.789Z,13.60
2023-10-19T19:35:21.478Z,13.60
2023-10-19T19:37:49.571Z,13.57
2023-10-19T19:40:19.105Z,13.57
2023-10-19T19:42:47.299Z,13.56
2023-10-19T19:45:16.533Z,13.57
2023-10-19T19:47:46.511Z,13.60
2023-10-19T19:50:15.834Z,13.62
2023-10-19T19:52:45.813Z,13.67
2023-10-19T19:55:14.722Z,13.76
2023-10-19T19:57:43.856Z,13.78
2023-10-19T20:00:16.889Z,13.79
2023-10-19T20:02:47.910Z,13.82
2023-10-19T20:05:17.836Z,13.81
2023-10-19T20:07:47.654Z,13.81
2023-10-19T20:10:16.580Z,13.80
2023-10-19T20:12:45.927Z,13.80
2023-10-19T20:15:15.770Z,13.80
2023-10-19T20:17:44.898Z,13.82
2023-10-19T20:20:13.986Z,13.81
2023-10-19T20:22:43.729Z,13.83
2023-10-19T20:25:14.177Z,13.81
2023-10-19T20:27:43.125Z,13.83
2023-10-19T20:30:14.064Z,13.81
2023-10-19T20:32:42.987Z,13.79
2023-10-19T20:35:12.112Z,13.69
2023-10-19T20:37:40.457Z,13.83
2023-10-19T20:40:10.877Z,13.82
2023-10-19T20:42:44.409Z,13.82
2023-10-19T20:45:13.156Z,13.81
2023-10-19T20:47:42.888Z,13.83
2023-10-19T20:50:11.967Z,13.82
2023-10-19T20:52:40.717Z,13.78
2023-10-19T20:55:10.415Z,13.79
2023-10-19T20:57:40.150Z,13.81
2023-10-19T21:00:10.553Z,13.81
2023-10-19T21:02:38.696Z,13.79
2023-10-19T21:05:07.478Z,13.80
2023-10-19T21:07:35.701Z,13.80
2023-10-19T21:10:06.356Z,13.80
2023-10-19T21:12:34.536Z,13.80
2023-10-19T21:15:04.196Z,13.60
2023-10-19T21:17:33.161Z,13.83
2023-10-19T21:20:01.526Z,13.82
2023-10-19T21:22:29.782Z,13.81
2023-10-19T21:24:58.008Z,13.79
2023-10-19T21:27:26.168Z,13.80
2023-10-19T21:29:54.273Z,13.81
2023-10-19T21:32:23.817Z,13.81
2023-10-19T21:34:52.161Z,13.80
2023-10-19T21:37:20.693Z,13.78
2023-10-19T21:39:49.388Z,13.76
2023-10-19T21:42:17.569Z,13.74
2023-10-19T21:44:47.139Z,13.75
2023-10-19T21:47:17.252Z,13.74
2023-10-19T21:49:49.916Z,13.74
2023-10-19T21:52:21.660Z,13.72
2023-10-19T21:54:49.996Z,13.72
2023-10-19T21:57:18.855Z,13.69
2023-10-19T21:59:47.409Z,13.67
2023-10-19T22:02:17.268Z,13.64
2023-10-19T22:04:47.093Z,13.67
2023-10-19T22:07:15.651Z,13.67
2023-10-19T22:09:44.051Z,13.67
2023-10-19T22:12:12.331Z,13.66
2023-10-19T22:14:41.246Z,13.64
2023-10-19T22:17:09.382Z,13.63
2023-10-19T22:19:37.527Z,13.61
2023-10-19T22:22:07.764Z,13.60
2023-10-19T22:24:36.035Z,13.58
2023-10-19T22:27:04.408Z,13.56
2023-10-19T22:29:34.056Z,13.56
2023-10-19T22:32:02.601Z,13.55
2023-10-19T22:34:31.000Z,13.55
2023-10-19T22:36:59.397Z,13.54
2023-10-19T22:39:29.421Z,13.52
2023-10-19T22:41:57.578Z,13.52
2023-10-19T22:44:25.905Z,13.52
2023-10-19T22:46:54.138Z,13.50
2023-10-19T22:49:22.369Z,13.47
2023-10-19T22:54:01.386Z,13.37
2023-10-19T22:56:29.470Z,13.37
2023-10-19T22:58:58.096Z,13.36
2023-10-19T23:01:26.733Z,13.34
2023-10-19T23:03:54.816Z,13.32
2023-10-19T23:06:26.547Z,13.28
2023-10-19T23:08:55.458Z,13.27
2023-10-19T23:11:29.986Z,13.25
2023-10-19T23:14:00.819Z,13.24
2023-10-19T23:16:33.171Z,13.18
2023-10-19T23:19:01.618Z,13.13
2023-10-19T23:21:33.977Z,13.09
2023-10-19T23:24:02.529Z,13.06
2023-10-19T23:26:32.881Z,13.07
2023-10-19T23:29:05.919Z,13.09
2023-10-19T23:31:39.338Z,13.10
2023-10-19T23:34:07.744Z,13.08
2023-10-19T23:36:36.912Z,13.10
2023-10-19T23:39:08.192Z,13.13
2023-10-19T23:41:37.881Z,13.17
2023-10-19T23:44:07.234Z,13.15
2023-10-19T23:46:35.584Z,13.11
2023-10-19T23:49:05.518Z,13.07
2023-10-19T23:51:33.750Z,13.03
2023-10-19T23:54:01.879Z,13.08
2023-10-19T23:56:30.558Z,13.08
2023-10-19T23:59:00.387Z,13.09
